Billings Logan International Airport

Airport
ICAO code: 
KBIL
Summary
ICAO Region: 
NAM
Territory: 
Location: 
Billings, Montana,
Coordinates: 
Aerial View: 
45° 48' 9.462" N, 108° 32' 8.376" W
Airport CFIT: 
Altimeter Temperature Error Correction
Airport LOS: 
Parallel Runway Operation
Airport RE: 
Hot and High Operations
Metar
Observation
KBIL 020953Z 25016KT 10SM FEW250 14/01 A2992 RMK AO2 SLP115 T01390006
Station
Billings, Billings Logan International Airport
Date/Time
2021-12-02 09:53:00
Wind direction
250°
Wind speed
16 kts
Lowest cloud amount
few clouds
Temperature
13.9°C
Dew point
0.6°C
Humidity
40%
Weather condition
n/a

Description

Billings Logan International Airport is a public use airport located 4 km northwest of the central business district of Billings, in Yellowstone County, Montana.

Climatology

Cold Semi-arid climate (Köppen climate classification BSk). - Hot, sometimes extremely hot summers and cold, sometimes very cold winters. Some snowfall during the winter. Areas featuring cold semi-arid climates are sometimes subject to major temperature swings during a 24 hour period.

Runways

Designator Length Width Surface Rops
10R/28L 1159 23 ASP Yes/Yes
7/25 1677 23 ASP Yes/Yes
10L/28R 3206 46 ASP Yes/Yes
Airport map: 
Aerial View: 

SKYbrary Partners:

Safety knowledge contributed by: